createdAt,value
2018-06-01T00:00:45.410Z,4.60
2018-06-01T00:03:11.566Z,4.07
2018-06-01T00:05:37.332Z,5.00
2018-06-01T00:08:03.068Z,4.80
2018-06-01T00:10:28.799Z,4.30
2018-06-01T00:12:55.238Z,4.67
2018-06-01T00:15:20.975Z,4.03
2018-06-01T00:17:46.719Z,4.37
2018-06-01T00:20:12.450Z,4.23
2018-06-01T00:22:38.185Z,3.97
2018-06-01T00:25:03.951Z,4.20
2018-06-01T00:27:29.648Z,3.97
2018-06-01T00:29:55.384Z,4.50
2018-06-01T00:32:21.123Z,4.13
2018-06-01T00:34:46.843Z,4.23
2018-06-01T00:37:13.134Z,4.03
2018-06-01T00:39:38.937Z,4.53
2018-06-01T00:42:05.820Z,4.10
2018-06-01T00:44:31.576Z,4.60
2018-06-01T00:46:57.284Z,4.10
2018-06-01T00:49:23.004Z,4.57
2018-06-01T00:51:48.735Z,4.80
2018-06-01T00:54:14.471Z,4.30
2018-06-01T00:56:40.201Z,4.27
2018-06-01T00:59:05.941Z,4.37
2018-06-01T01:01:31.677Z,4.13
2018-06-01T01:03:57.412Z,3.83
2018-06-01T01:06:23.143Z,4.83
2018-06-01T01:08:48.881Z,4.80
2018-06-01T01:11:14.668Z,4.87
2018-06-01T01:13:40.398Z,4.00
2018-06-01T01:16:06.124Z,3.77
2018-06-01T01:18:31.857Z,4.50
2018-06-01T01:20:57.593Z,4.20
2018-06-01T01:23:23.336Z,4.60
2018-06-01T01:25:49.071Z,4.40
2018-06-01T01:28:14.803Z,3.97
2018-06-01T01:30:40.535Z,4.50
2018-06-01T01:33:06.279Z,4.63
2018-06-01T01:35:32.000Z,4.10
2018-06-01T01:37:57.738Z,4.33
2018-06-01T01:40:23.460Z,4.20
2018-06-01T01:42:49.184Z,4.43
2018-06-01T01:45:14.928Z,4.47
2018-06-01T01:47:40.648Z,4.60
2018-06-01T01:50:06.387Z,4.47
2018-06-01T01:52:32.126Z,4.23
2018-06-01T01:54:57.861Z,4.27
2018-06-01T01:57:23.604Z,4.10
2018-06-01T01:59:49.345Z,4.27
2018-06-01T02:02:15.079Z,4.37
2018-06-01T02:04:40.823Z,4.03
2018-06-01T02:07:06.561Z,3.77
2018-06-01T02:09:32.306Z,4.50
2018-06-01T02:11:58.036Z,4.50
2018-06-01T02:14:23.776Z,4.23
2018-06-01T02:16:49.511Z,4.13
2018-06-01T02:19:15.252Z,4.77
2018-06-01T02:21:40.983Z,3.80
2018-06-01T02:24:06.727Z,4.13
2018-06-01T02:26:32.465Z,4.17
2018-06-01T02:28:58.208Z,3.87
2018-06-01T02:31:23.948Z,4.07
2018-06-01T02:33:49.685Z,3.83
2018-06-01T02:36:15.416Z,4.40
2018-06-01T02:38:41.493Z,3.80
2018-06-01T02:41:07.242Z,4.23
2018-06-01T02:43:39.968Z,3.60
2018-06-01T02:46:05.709Z,4.17
2018-06-01T02:48:31.448Z,4.10
2018-06-01T02:50:57.186Z,3.97
2018-06-01T02:53:22.921Z,4.13
2018-06-01T02:55:48.655Z,4.17
2018-06-01T02:58:14.392Z,3.70
2018-06-01T03:00:40.127Z,4.20
2018-06-01T03:03:05.856Z,3.90
2018-06-01T03:05:31.608Z,3.30
2018-06-01T03:07:57.349Z,3.60
2018-06-01T03:10:23.125Z,3.57
2018-06-01T03:12:48.849Z,3.53
2018-06-01T03:15:14.617Z,3.30
2018-06-01T03:17:40.355Z,3.80
2018-06-01T03:20:06.097Z,3.37
2018-06-01T03:22:31.825Z,3.50
2018-06-01T03:24:57.572Z,3.43
2018-06-01T03:27:23.300Z,3.40
2018-06-01T03:29:49.054Z,3.37
2018-06-01T03:32:14.764Z,3.80
2018-06-01T03:34:40.509Z,3.50
2018-06-01T03:37:06.241Z,3.37
2018-06-01T03:39:31.985Z,3.43
2018-06-01T03:41:57.703Z,3.33
2018-06-01T03:44:23.436Z,3.33
2018-06-01T03:46:49.178Z,3.47
2018-06-01T03:49:14.922Z,3.37
2018-06-01T03:51:40.676Z,3.60
2018-06-01T03:54:06.421Z,2.97
2018-06-01T03:56:32.158Z,3.40
2018-06-01T03:58:57.905Z,3.20
2018-06-01T04:01:23.641Z,3.37
2018-06-01T04:03:49.380Z,3.50
2018-06-01T04:06:15.119Z,3.60
2018-06-01T04:08:40.847Z,3.30
2018-06-01T04:11:06.577Z,3.13
2018-06-01T04:13:32.312Z,3.33
2018-06-01T04:15:58.048Z,3.03
2018-06-01T04:18:23.776Z,3.27
2018-06-01T04:20:49.512Z,3.00
2018-06-01T04:23:15.254Z,2.90
2018-06-01T04:25:41.005Z,3.17
2018-06-01T04:28:06.728Z,3.20
2018-06-01T04:30:32.473Z,2.90
2018-06-01T04:32:58.192Z,3.47
2018-06-01T04:35:23.945Z,3.20
2018-06-01T04:37:49.681Z,2.90
2018-06-01T04:40:15.426Z,3.20
2018-06-01T04:42:41.164Z,2.93
2018-06-01T04:45:06.914Z,2.90
2018-06-01T04:47:32.905Z,3.13
2018-06-01T04:49:58.646Z,2.93
2018-06-01T04:52:24.379Z,3.17
2018-06-01T04:54:50.120Z,2.73
2018-06-01T04:57:15.853Z,3.00
2018-06-01T04:59:41.604Z,2.73
2018-06-01T05:02:07.344Z,3.00
2018-06-01T05:04:33.071Z,2.77
2018-06-01T05:06:58.806Z,2.67
2018-06-01T05:09:24.544Z,2.90
2018-06-01T05:11:50.280Z,2.90
2018-06-01T05:14:16.011Z,3.23
2018-06-01T05:16:41.783Z,2.70
2018-06-01T05:19:07.498Z,3.10
2018-06-01T05:21:33.254Z,2.77
2018-06-01T05:23:58.982Z,2.90
2018-06-01T05:26:24.736Z,3.13
2018-06-01T05:28:50.459Z,2.87
2018-06-01T05:31:16.200Z,3.17
2018-06-01T05:33:41.933Z,3.17
2018-06-01T05:36:07.687Z,2.77
2018-06-01T05:38:33.432Z,3.07
2018-06-01T05:40:59.192Z,2.90
2018-06-01T05:43:24.948Z,3.10
2018-06-01T05:45:50.682Z,2.90
2018-06-01T05:48:16.424Z,3.30
2018-06-01T05:50:42.159Z,3.03
2018-06-01T05:53:07.905Z,2.53
2018-06-01T05:55:33.641Z,3.20
2018-06-01T05:58:06.180Z,3.03
2018-06-01T06:00:31.940Z,2.90
2018-06-01T06:02:57.663Z,3.47
2018-06-01T06:05:23.411Z,2.43
2018-06-01T06:07:49.140Z,3.30
2018-06-01T06:10:14.891Z,2.77
2018-06-01T06:12:40.635Z,2.83
2018-06-01T06:15:06.366Z,3.20
2018-06-01T06:17:32.104Z,3.10
2018-06-01T06:19:57.858Z,3.00
2018-06-01T06:22:23.607Z,2.67
2018-06-01T06:24:49.344Z,2.90
2018-06-01T06:27:15.093Z,2.90
2018-06-01T06:29:40.824Z,3.03
2018-06-01T06:32:06.569Z,2.63
2018-06-01T06:34:32.301Z,2.83
2018-06-01T06:36:58.045Z,2.80
2018-06-01T06:39:23.775Z,2.83
2018-06-01T06:41:49.523Z,3.03
2018-06-01T06:44:15.274Z,2.50
2018-06-01T06:46:41.017Z,3.57
2018-06-01T06:49:06.745Z,3.10
2018-06-01T06:51:32.468Z,3.00
2018-06-01T06:53:58.209Z,3.20
2018-06-01T06:56:23.944Z,3.23
2018-06-01T06:58:49.685Z,3.17
2018-06-01T07:01:15.420Z,3.03
2018-06-01T07:03:41.157Z,2.80
2018-06-01T07:06:06.924Z,3.10
2018-06-01T07:08:32.687Z,2.80
2018-06-01T07:10:58.425Z,3.00
2018-06-01T07:13:24.176Z,3.20
2018-06-01T07:15:49.938Z,3.07
2018-06-01T07:18:15.744Z,3.47
2018-06-01T07:20:41.420Z,3.43
2018-06-01T07:23:07.156Z,3.40
2018-06-01T07:25:32.909Z,3.50
2018-06-01T07:27:58.648Z,3.27
2018-06-01T07:30:24.387Z,3.27
2018-06-01T07:32:50.147Z,3.13
2018-06-01T07:35:15.892Z,3.30
2018-06-01T07:37:41.642Z,3.57
2018-06-01T07:40:07.376Z,3.10
2018-06-01T07:42:33.127Z,3.63
2018-06-01T07:44:58.867Z,3.53
2018-06-01T07:47:24.615Z,3.40
2018-06-01T07:49:50.356Z,3.10
2018-06-01T07:52:16.119Z,3.57
2018-06-01T07:54:41.857Z,3.33
2018-06-01T07:57:07.598Z,3.47
2018-06-01T07:59:33.329Z,3.13
2018-06-01T08:01:59.072Z,3.30
2018-06-01T08:04:24.822Z,3.40
2018-06-01T08:06:50.577Z,3.60
2018-06-01T08:09:16.377Z,3.60
2018-06-01T08:11:42.093Z,2.97
2018-06-01T08:14:07.820Z,3.17
2018-06-01T08:16:33.565Z,3.20
2018-06-01T08:18:59.313Z,3.37
2018-06-01T08:21:25.071Z,4.00
2018-06-01T08:23:50.818Z,3.40
2018-06-01T08:26:16.563Z,3.83
2018-06-01T08:28:42.318Z,3.33
2018-06-01T08:31:08.043Z,3.83
2018-06-01T08:33:33.783Z,3.73
2018-06-01T08:35:59.517Z,3.60
2018-06-01T08:38:25.261Z,3.30
2018-06-01T08:40:50.994Z,3.53
2018-06-01T08:43:16.754Z,3.50
2018-06-01T08:45:42.508Z,3.70
2018-06-01T08:48:08.258Z,3.87
2018-06-01T08:50:33.995Z,3.87
2018-06-01T08:52:59.733Z,3.80
2018-06-01T08:55:25.484Z,3.83
2018-06-01T08:57:51.238Z,3.97
2018-06-01T09:00:16.969Z,4.37
2018-06-01T09:02:42.718Z,3.50
2018-06-01T09:05:08.456Z,4.20
2018-06-01T09:07:34.192Z,4.17
2018-06-01T09:09:59.970Z,3.57
2018-06-01T09:12:25.680Z,4.10
2018-06-01T09:14:51.411Z,4.23
2018-06-01T09:17:17.170Z,3.63
2018-06-01T09:19:42.923Z,3.63
2018-06-01T09:22:08.718Z,3.70
2018-06-01T09:24:34.448Z,4.03
2018-06-01T09:27:00.214Z,4.10
2018-06-01T09:29:25.989Z,4.40
2018-06-01T09:31:51.725Z,4.60
2018-06-01T09:34:17.492Z,3.97
2018-06-01T09:36:43.236Z,3.77
2018-06-01T09:39:08.981Z,3.93
2018-06-01T09:41:34.732Z,3.60
2018-06-01T09:44:00.483Z,4.00
2018-06-01T09:46:26.233Z,3.63
2018-06-01T09:48:51.968Z,4.73
2018-06-01T09:51:17.703Z,4.00
2018-06-01T09:53:43.456Z,4.17
2018-06-01T09:56:09.197Z,4.37
2018-06-01T09:58:34.935Z,4.20
2018-06-01T10:01:00.687Z,4.20
2018-06-01T10:03:26.438Z,3.97
2018-06-01T10:05:52.197Z,4.40
2018-06-01T10:08:17.961Z,4.13
2018-06-01T10:10:44.060Z,3.77
2018-06-01T10:13:09.848Z,3.77
2018-06-01T10:15:35.657Z,4.23
2018-06-01T10:18:01.365Z,3.70
2018-06-01T10:20:27.142Z,4.23
2018-06-01T10:22:52.898Z,3.87
2018-06-01T10:25:18.641Z,4.10
2018-06-01T10:27:44.457Z,3.47
2018-06-01T10:30:10.258Z,4.40
2018-06-01T10:32:36.492Z,3.67
2018-06-01T10:35:02.271Z,3.50
2018-06-01T10:37:28.012Z,3.83
2018-06-01T10:39:53.761Z,3.80
2018-06-01T10:42:19.505Z,3.93
2018-06-01T10:44:45.742Z,3.63
2018-06-01T10:47:11.492Z,3.63
2018-06-01T10:49:37.785Z,4.27
2018-06-01T10:52:04.253Z,3.70
2018-06-01T10:54:30.053Z,4.00
2018-06-01T10:56:55.785Z,3.73
2018-06-01T10:59:21.533Z,4.10
2018-06-01T11:01:47.285Z,4.07
2018-06-01T11:04:13.024Z,3.70
2018-06-01T11:06:38.762Z,3.67
2018-06-01T11:09:04.522Z,4.10
2018-06-01T11:11:30.273Z,3.70
2018-06-01T11:13:56.020Z,3.97
2018-06-01T11:16:21.759Z,4.23
2018-06-01T11:18:47.496Z,4.13
2018-06-01T11:21:13.350Z,4.20
2018-06-01T11:23:39.767Z,3.73
2018-06-01T11:26:05.555Z,4.07
2018-06-01T11:28:31.330Z,3.80
2018-06-01T11:30:57.085Z,4.30
2018-06-01T11:33:22.838Z,4.10
2018-06-01T11:35:48.580Z,4.10
2018-06-01T11:38:14.331Z,3.80
2018-06-01T11:40:40.083Z,3.97
2018-06-01T11:43:05.843Z,3.83
2018-06-01T11:45:31.603Z,4.13
2018-06-01T11:47:57.356Z,4.23
2018-06-01T11:50:23.122Z,3.87
2018-06-01T11:52:48.879Z,4.40
2018-06-01T11:55:14.645Z,4.73
2018-06-01T11:57:40.400Z,4.33
2018-06-01T12:00:06.180Z,4.13
2018-06-01T12:02:32.067Z,4.00
2018-06-01T12:04:57.821Z,3.70
2018-06-01T12:07:23.689Z,3.73
2018-06-01T12:09:49.840Z,4.07
2018-06-01T12:12:15.584Z,3.90
2018-06-01T12:14:41.349Z,3.97
2018-06-01T12:17:07.285Z,3.63
2018-06-01T12:19:33.048Z,3.70
2018-06-01T12:21:58.793Z,4.03
2018-06-01T12:24:24.542Z,4.30
2018-06-01T12:26:50.290Z,3.67
2018-06-01T12:29:16.060Z,4.10
2018-06-01T12:31:41.806Z,3.50
2018-06-01T12:34:07.550Z,3.87
2018-06-01T12:36:33.306Z,3.53
2018-06-01T12:38:59.068Z,3.93
2018-06-01T12:41:24.813Z,4.17
2018-06-01T12:43:50.552Z,3.80
2018-06-01T12:46:16.286Z,3.57
2018-06-01T12:48:42.032Z,3.33
2018-06-01T12:51:07.781Z,4.10
2018-06-01T12:53:33.532Z,3.63
2018-06-01T12:55:59.276Z,3.87
2018-06-01T12:58:25.008Z,3.80
2018-06-01T13:00:50.747Z,4.03
2018-06-01T13:03:16.482Z,4.17
2018-06-01T13:05:42.246Z,4.20
2018-06-01T13:08:07.992Z,3.60
2018-06-01T13:10:33.741Z,4.30
2018-06-01T13:12:59.468Z,3.53
2018-06-01T13:15:25.231Z,4.47
2018-06-01T13:17:50.989Z,3.80
2018-06-01T13:20:16.760Z,4.20
2018-06-01T13:22:42.505Z,3.77
2018-06-01T13:25:08.253Z,3.20
2018-06-01T13:27:34.016Z,3.83
2018-06-01T13:29:59.758Z,3.90
2018-06-01T13:32:25.493Z,3.63
2018-06-01T13:34:51.251Z,3.63
2018-06-01T13:37:16.996Z,3.70
2018-06-01T13:39:42.736Z,3.70
2018-06-01T13:42:08.473Z,3.97
2018-06-01T13:44:34.230Z,4.20
2018-06-01T13:46:59.970Z,4.17
2018-06-01T13:49:25.714Z,3.87
2018-06-01T13:51:51.461Z,4.13
2018-06-01T13:54:17.207Z,3.80
2018-06-01T13:56:42.957Z,3.60
2018-06-01T13:59:08.706Z,3.87
2018-06-01T14:01:34.465Z,3.63
2018-06-01T14:04:00.225Z,3.67
2018-06-01T14:06:26.000Z,4.10
2018-06-01T14:08:51.753Z,4.10
2018-06-01T14:11:17.512Z,3.70
2018-06-01T14:13:43.329Z,4.07
2018-06-01T14:16:09.089Z,3.90
2018-06-01T14:18:34.828Z,3.50
2018-06-01T14:21:00.619Z,3.43
2018-06-01T14:23:26.363Z,3.10
2018-06-01T14:25:52.112Z,3.60
2018-06-01T14:28:17.855Z,3.83
2018-06-01T14:30:43.605Z,3.77
2018-06-01T14:33:09.369Z,3.93
2018-06-01T14:35:35.116Z,3.67
2018-06-01T14:38:00.865Z,3.63
2018-06-01T14:40:26.596Z,3.77
2018-06-01T14:42:52.334Z,4.03
2018-06-01T14:45:18.076Z,3.87
2018-06-01T14:47:43.809Z,4.10
2018-06-01T14:50:09.597Z,3.60
2018-06-01T14:52:35.328Z,3.97
2018-06-01T14:55:01.068Z,3.60
2018-06-01T14:57:26.818Z,4.57
2018-06-01T14:59:52.565Z,4.07
2018-06-01T15:02:18.308Z,4.40
2018-06-01T15:04:44.041Z,3.90
2018-06-01T15:07:09.794Z,3.83
2018-06-01T15:09:35.527Z,4.37
2018-06-01T15:12:01.281Z,4.20
2018-06-01T15:14:27.022Z,4.37
2018-06-01T15:16:52.776Z,4.33
2018-06-01T15:19:18.525Z,4.37
2018-06-01T15:21:44.319Z,4.40
2018-06-01T15:24:10.060Z,4.40
2018-06-01T15:26:35.812Z,4.10
2018-06-01T15:29:01.574Z,4.37
2018-06-01T15:31:27.342Z,4.17
2018-06-01T15:33:53.123Z,4.37
2018-06-01T15:36:18.863Z,4.17
2018-06-01T15:38:44.608Z,4.47
2018-06-01T15:41:10.363Z,4.20
2018-06-01T15:43:36.081Z,4.10
2018-06-01T15:46:01.824Z,4.10
2018-06-01T15:48:27.568Z,4.33
2018-06-01T15:50:53.341Z,4.73
2018-06-01T15:53:19.068Z,4.07
2018-06-01T15:55:44.805Z,4.60
2018-06-01T15:58:10.553Z,4.00
2018-06-01T16:00:36.300Z,4.50
2018-06-01T16:03:02.049Z,4.37
2018-06-01T16:05:27.811Z,4.10
2018-06-01T16:07:53.552Z,4.27
2018-06-01T16:10:19.292Z,4.50
2018-06-01T16:12:45.069Z,3.83
2018-06-01T16:15:10.813Z,4.13
2018-06-01T16:17:36.576Z,4.50
2018-06-01T16:20:02.341Z,4.67
2018-06-01T16:22:28.080Z,4.07
2018-06-01T16:24:53.821Z,4.40
2018-06-01T16:27:19.580Z,4.00
2018-06-01T16:29:45.326Z,4.47
2018-06-01T16:32:11.090Z,3.83
2018-06-01T16:34:36.816Z,3.67
2018-06-01T16:37:02.564Z,4.23
2018-06-01T16:39:28.292Z,3.77
2018-06-01T16:41:54.032Z,4.10
2018-06-01T16:44:19.784Z,4.17
2018-06-01T16:46:45.532Z,3.87
2018-06-01T16:49:11.265Z,4.07
2018-06-01T16:51:37.018Z,4.43
2018-06-01T16:54:02.776Z,3.97
2018-06-01T16:56:28.508Z,3.90
2018-06-01T16:58:54.253Z,4.30
2018-06-01T17:01:19.993Z,4.17
2018-06-01T17:03:45.744Z,4.63
2018-06-01T17:06:11.479Z,3.70
2018-06-01T17:08:37.255Z,4.30
2018-06-01T17:11:03.000Z,4.50
2018-06-01T17:13:28.760Z,4.33
2018-06-01T17:15:54.512Z,4.53
2018-06-01T17:18:20.286Z,4.23
2018-06-01T17:20:46.030Z,3.63
2018-06-01T17:23:11.792Z,3.87
2018-06-01T17:25:37.550Z,4.10
2018-06-01T17:28:03.311Z,4.07
2018-06-01T17:30:29.089Z,4.20
2018-06-01T17:32:54.819Z,4.10
2018-06-01T17:35:20.569Z,4.97
2018-06-01T17:37:46.310Z,4.20
2018-06-01T17:40:12.063Z,4.40
2018-06-01T17:42:38.237Z,4.40
2018-06-01T17:45:04.163Z,4.50
2018-06-01T17:47:30.387Z,3.97
2018-06-01T17:49:56.167Z,4.13
2018-06-01T17:52:21.920Z,4.23
2018-06-01T17:54:47.665Z,4.03
2018-06-01T17:57:13.429Z,4.17
2018-06-01T17:59:39.161Z,3.70
2018-06-01T18:02:04.904Z,4.77
2018-06-01T18:04:30.648Z,4.10
2018-06-01T18:06:56.420Z,4.43
2018-06-01T18:09:22.156Z,4.03
2018-06-01T18:11:47.902Z,4.70
2018-06-01T18:14:13.664Z,4.53
2018-06-01T18:16:39.425Z,4.37
2018-06-01T18:19:05.161Z,4.80
2018-06-01T18:21:30.922Z,3.97
2018-06-01T18:23:57.987Z,4.77
2018-06-01T18:26:23.846Z,4.37
2018-06-01T18:28:49.612Z,4.33
2018-06-01T18:31:15.370Z,4.73
2018-06-01T18:33:41.180Z,4.90
2018-06-01T18:36:06.925Z,4.73
2018-06-01T18:38:32.660Z,4.90
2018-06-01T18:40:58.663Z,4.17
2018-06-01T18:43:24.579Z,4.13
2018-06-01T18:45:50.456Z,4.53
2018-06-01T18:48:16.564Z,4.67
2018-06-01T18:50:42.305Z,4.27
2018-06-01T18:53:08.263Z,4.60
2018-06-01T18:55:34.114Z,4.50
2018-06-01T18:58:00.741Z,4.50
2018-06-01T19:00:26.580Z,4.10
2018-06-01T19:02:52.335Z,4.47
2018-06-01T19:05:18.068Z,4.60
2018-06-01T19:07:43.819Z,5.03
2018-06-01T19:10:09.549Z,4.47
2018-06-01T19:12:35.288Z,4.60
2018-06-01T19:15:01.021Z,5.20
2018-06-01T19:17:26.812Z,5.00
2018-06-01T19:19:52.514Z,4.70
2018-06-01T19:22:18.256Z,4.40
2018-06-01T19:24:44.094Z,4.67
2018-06-01T19:27:09.959Z,4.57
2018-06-01T19:29:35.766Z,5.13
2018-06-01T19:32:01.564Z,4.67
2018-06-01T19:34:27.370Z,4.90
2018-06-01T19:36:53.077Z,4.83
2018-06-01T19:39:18.826Z,4.97
2018-06-01T19:41:44.588Z,4.63
2018-06-01T19:44:10.312Z,4.73
2018-06-01T19:46:36.069Z,5.00
2018-06-01T19:49:01.849Z,5.10
2018-06-01T19:51:27.572Z,5.17
2018-06-01T19:53:53.308Z,4.87
2018-06-01T19:56:19.064Z,4.97
2018-06-01T19:58:44.963Z,4.80
2018-06-01T20:01:10.828Z,5.17
2018-06-01T20:03:36.588Z,4.70
2018-06-01T20:06:02.356Z,4.90
2018-06-01T20:08:28.102Z,4.67
2018-06-01T20:10:53.852Z,5.20
2018-06-01T20:13:20.431Z,4.70
2018-06-01T20:15:46.126Z,4.93
2018-06-01T20:18:11.868Z,4.40
2018-06-01T20:20:37.620Z,4.83
2018-06-01T20:23:03.380Z,4.50
2018-06-01T20:25:29.104Z,4.63
2018-06-01T20:27:54.839Z,5.30
2018-06-01T20:30:20.587Z,5.37
2018-06-01T20:32:46.332Z,4.90
2018-06-01T20:35:12.069Z,5.50
2018-06-01T20:37:37.808Z,6.77
2018-06-01T20:40:03.564Z,5.77
2018-06-01T20:42:29.318Z,6.50
2018-06-01T20:44:55.044Z,6.10
2018-06-01T20:47:20.792Z,5.80
2018-06-01T20:49:46.518Z,5.30
2018-06-01T20:52:12.269Z,5.23
2018-06-01T20:54:37.999Z,5.30
2018-06-01T20:57:03.753Z,5.40
2018-06-01T20:59:29.494Z,6.13
2018-06-01T21:01:55.277Z,5.93
2018-06-01T21:04:21.097Z,5.17
2018-06-01T21:06:46.921Z,5.73
2018-06-01T21:09:12.839Z,5.73
2018-06-01T21:11:38.688Z,5.80
2018-06-01T21:14:04.600Z,5.50
2018-06-01T21:16:30.596Z,5.50
2018-06-01T21:18:56.453Z,5.90
2018-06-01T21:21:22.235Z,6.33
2018-06-01T21:23:48.136Z,5.80
2018-06-01T21:26:14.090Z,5.97
2018-06-01T21:28:39.860Z,6.50
2018-06-01T21:31:05.591Z,6.37
2018-06-01T21:33:31.347Z,6.60
2018-06-01T21:35:57.085Z,7.33
2018-06-01T21:38:22.849Z,6.50
2018-06-01T21:40:48.590Z,6.90
2018-06-01T21:43:14.336Z,6.33
2018-06-01T21:45:40.069Z,6.40
2018-06-01T21:48:05.818Z,6.87
2018-06-01T21:50:31.557Z,7.30
2018-06-01T21:52:57.309Z,7.57
2018-06-01T21:55:23.048Z,7.30
2018-06-01T21:57:48.785Z,7.63
2018-06-01T22:00:14.531Z,7.43
2018-06-01T22:02:40.290Z,8.10
2018-06-01T22:05:06.017Z,7.37
2018-06-01T22:07:31.777Z,6.80
2018-06-01T22:09:57.506Z,7.30
2018-06-01T22:12:23.244Z,7.20
2018-06-01T22:14:48.993Z,6.73
2018-06-01T22:17:14.720Z,6.97
2018-06-01T22:19:40.489Z,7.10
2018-06-01T22:22:06.239Z,6.50
2018-06-01T22:24:31.970Z,6.83
2018-06-01T22:26:57.708Z,7.10
2018-06-01T22:29:23.462Z,6.97
2018-06-01T22:31:49.192Z,6.73
2018-06-01T22:34:14.940Z,7.30
2018-06-01T22:36:40.672Z,6.97
2018-06-01T22:39:06.417Z,7.87
2018-06-01T22:41:32.154Z,6.90
2018-06-01T22:43:57.896Z,7.70
2018-06-01T22:46:23.627Z,7.10
2018-06-01T22:48:49.377Z,7.47
2018-06-01T22:51:15.120Z,7.37
2018-06-01T22:53:40.871Z,7.43
2018-06-01T22:56:06.608Z,7.07
2018-06-01T22:58:32.360Z,7.20
2018-06-01T23:00:58.349Z,6.90
2018-06-01T23:03:24.108Z,7.23
2018-06-01T23:05:49.883Z,7.03
2018-06-01T23:08:15.644Z,7.30
2018-06-01T23:10:41.391Z,7.63
2018-06-01T23:13:07.177Z,6.90
2018-06-01T23:15:32.951Z,7.23
2018-06-01T23:17:58.687Z,7.10
2018-06-01T23:20:24.440Z,7.30
2018-06-01T23:22:50.180Z,6.87
2018-06-01T23:25:15.918Z,6.27
2018-06-01T23:27:41.754Z,6.40
2018-06-01T23:30:07.508Z,6.33
2018-06-01T23:32:34.644Z,6.20
2018-06-01T23:35:01.209Z,6.00
2018-06-01T23:37:26.950Z,5.83
2018-06-01T23:39:52.693Z,6.50
2018-06-01T23:42:18.460Z,6.13
2018-06-01T23:44:44.211Z,5.80
2018-06-01T23:47:10.212Z,5.80
2018-06-01T23:49:35.966Z,6.23
2018-06-01T23:52:02.694Z,6.13
2018-06-01T23:54:28.445Z,6.43
2018-06-01T23:56:54.168Z,6.40
2018-06-01T23:59:19.921Z,5.67
